Time;durP1;ratioP1;P1;durP2;ratioP2;P2;SDS_P1;SDS_P2;PMS_P1;PMS_P2;Temp;Humidity;BMP_temperature;BMP_pressure;BME280_temperature;BME280_humidity;BME280_pressure;Samples;Min_cycle;Max_cycle;Signal;HPM_P1;HPM_P2
2022/12/08 00:01:15;;;;;;;0.70;0.70;;;2.20;99.90;;;;;;5046625;28;20505;-84
2022/12/08 00:03:41;;;;;;;0.60;0.60;;;2.00;99.90;;;;;;5060715;28;20052;-83
2022/12/08 00:11:40;;;;;;;0.70;0.70;;;3.30;99.90;;;;;;5063027;28;20048;-84
2022/12/08 00:14:06;;;;;;;0.70;0.70;;;1.80;99.90;;;;;;5061920;28;20056;-84
2022/12/08 00:16:32;;;;;;;0.65;0.65;;;1.80;99.90;;;;;;5065225;28;20048;-83
2022/12/08 00:19:00;;;;;;;0.70;0.70;;;1.80;99.90;;;;;;5059831;28;20037;-84
2022/12/08 00:21:27;;;;;;;0.60;0.60;;;1.80;99.90;;;;;;5050485;28;20777;-83
2022/12/08 00:23:55;;;;;;;0.60;0.60;;;1.80;99.90;;;;;;5043494;28;20037;-84
2022/12/08 00:26:20;;;;;;;0.60;0.60;;;3.50;99.90;;;;;;5063054;28;20036;-85
2022/12/08 00:28:46;;;;;;;0.50;0.50;;;3.10;99.90;;;;;;5070584;28;20097;-84
2022/12/08 00:31:12;;;;;;;0.70;0.70;;;2.00;99.90;;;;;;5065532;28;20033;-85
2022/12/08 00:33:38;;;;;;;0.70;0.70;;;3.00;99.90;;;;;;5047120;28;20081;-85
2022/12/08 00:36:06;;;;;;;0.60;0.60;;;2.10;99.90;;;;;;5043405;28;20107;-84
2022/12/08 00:38:31;;;;;;;0.70;0.70;;;2.10;99.90;;;;;;5048266;28;20032;-85
2022/12/08 00:40:57;;;;;;;0.70;0.70;;;2.20;99.90;;;;;;5045414;28;20571;-84
2022/12/08 00:43:23;;;;;;;0.70;0.70;;;2.20;99.90;;;;;;5051729;28;20048;-85
2022/12/08 00:45:48;;;;;;;0.65;0.65;;;2.20;99.90;;;;;;5050365;28;20044;-83
2022/12/08 00:48:14;;;;;;;0.68;0.68;;;2.20;99.90;;;;;;5060784;28;20048;-84
2022/12/08 00:50:40;;;;;;;0.60;0.60;;;2.30;99.90;;;;;;5076893;28;20567;-85
2022/12/08 00:53:06;;;;;;;0.80;0.80;;;2.30;99.90;;;;;;5049524;28;20481;-86
2022/12/08 00:55:37;;;;;;;0.60;0.60;;;2.30;99.90;;;;;;5065330;28;20047;-84
2022/12/08 00:58:04;;;;;;;0.70;0.70;;;2.50;99.90;;;;;;5044836;28;20033;-85
2022/12/08 01:00:32;;;;;;;0.50;0.50;;;3.30;99.90;;;;;;5062705;28;20041;-84
2022/12/08 01:02:58;;;;;;;0.80;0.80;;;2.80;99.90;;;;;;5048193;28;20119;-83
2022/12/08 01:05:24;;;;;;;0.70;0.70;;;2.20;99.90;;;;;;5023927;28;20045;-83
2022/12/08 01:07:50;;;;;;;0.70;0.70;;;2.20;99.90;;;;;;5063825;28;20392;-83
2022/12/08 01:10:19;;;;;;;0.63;0.63;;;2.10;99.90;;;;;;5063031;28;20442;-85
2022/12/08 01:12:45;;;;;;;0.68;0.68;;;2.10;99.90;;;;;;5046608;28;20115;-83
2022/12/08 01:15:10;;;;;;;0.82;0.82;;;2.10;99.90;;;;;;5047920;28;21027;-84
2022/12/08 01:17:37;;;;;;;1.15;1.15;;;2.10;99.90;;;;;;5047878;28;20032;-83
2022/12/08 01:20:04;;;;;;;0.80;0.80;;;2.10;99.90;;;;;;5037603;28;20037;-83
2022/12/08 01:22:29;;;;;;;0.57;0.57;;;2.10;99.90;;;;;;5045301;28;20041;-83
2022/12/08 01:24:55;;;;;;;0.70;0.70;;;2.10;99.90;;;;;;5073242;28;20370;-83
2022/12/08 01:27:22;;;;;;;0.70;0.70;;;2.20;99.90;;;;;;5046040;28;20036;-83
2022/12/08 01:29:48;;;;;;;0.60;0.60;;;3.10;99.90;;;;;;5053959;28;20115;-82
2022/12/08 01:32:14;;;;;;;0.80;0.80;;;2.20;99.90;;;;;;5017259;28;20127;-83
2022/12/08 01:34:39;;;;;;;0.70;0.70;;;2.20;99.90;;;;;;5065512;28;20102;-82
2022/12/08 01:37:05;;;;;;;0.68;0.68;;;2.20;99.90;;;;;;5062068;28;20040;-82
2022/12/08 01:39:31;;;;;;;0.50;0.50;;;2.20;99.90;;;;;;5053305;28;20044;-83
2022/12/08 01:41:57;;;;;;;0.60;0.60;;;2.30;99.90;;;;;;5042901;28;20432;-85
2022/12/08 01:44:27;;;;;;;0.50;0.50;;;2.30;99.90;;;;;;5063735;28;20064;-85
2022/12/08 01:46:53;;;;;;;0.70;0.70;;;2.30;99.90;;;;;;5041645;28;20053;-82
2022/12/08 01:49:26;;;;;;;0.70;0.70;;;2.30;99.90;;;;;;5063574;28;20458;-83
2022/12/08 01:52:01;;;;;;;0.70;0.70;;;3.20;99.90;;;;;;5063037;28;20052;-84
2022/12/08 01:54:30;;;;;;;0.60;0.60;;;2.40;99.90;;;;;;5047842;28;20534;-84
2022/12/08 01:57:07;;;;;;;0.60;0.60;;;2.40;99.90;;;;;;5061203;28;20064;-83
2022/12/08 01:59:38;;;;;;;0.70;0.70;;;2.40;99.90;;;;;;5061319;28;20371;-83
2022/12/08 02:02:04;;;;;;;0.68;0.68;;;3.40;99.90;;;;;;5063380;28;20036;-83
2022/12/08 02:04:30;;;;;;;0.60;0.60;;;2.40;99.90;;;;;;5065463;28;20032;-84
2022/12/08 02:06:58;;;;;;;0.60;0.60;;;3.60;99.90;;;;;;5047068;28;20139;-84
2022/12/08 02:09:26;;;;;;;0.50;0.50;;;3.00;99.90;;;;;;5067328;28;20039;-84
2022/12/08 02:11:56;;;;;;;0.68;0.68;;;2.40;99.90;;;;;;5048382;28;20032;-83
2022/12/08 02:14:23;;;;;;;0.60;0.60;;;2.40;99.90;;;;;;5061104;28;20071;-84
2022/12/08 02:16:56;;;;;;;0.57;0.57;;;2.40;99.90;;;;;;5061302;28;20077;-84
2022/12/08 02:19:46;;;;;;;0.70;0.70;;;2.30;99.90;;;;;;5063569;28;20052;-85
2022/12/08 02:22:26;;;;;;;0.60;0.60;;;2.30;99.90;;;;;;5063154;28;20044;-85
2022/12/08 02:25:06;;;;;;;0.73;0.73;;;2.20;99.90;;;;;;5064926;28;20356;-83
2022/12/08 02:27:56;;;;;;;0.70;0.70;;;2.20;99.90;;;;;;5056798;28;20179;-87
2022/12/08 02:30:52;;;;;;;0.70;0.70;;;2.10;99.90;;;;;;5048611;28;20070;-86
2022/12/08 02:34:00;;;;;;;0.63;0.63;;;2.10;99.90;;;;;;5078364;28;20044;-85
2022/12/08 02:36:55;;;;;;;0.80;0.80;;;2.00;99.90;;;;;;5049368;28;20422;-84
2022/12/08 02:39:35;;;;;;;0.60;0.60;;;2.00;99.90;;;;;;5070085;28;20053;-84
2022/12/08 02:42:19;;;;;;;0.60;0.60;;;2.00;99.90;;;;;;5092533;28;20035;-85
2022/12/08 02:45:17;;;;;;;0.73;0.73;;;1.90;99.90;;;;;;5080224;28;20044;-84
2022/12/08 02:47:43;;;;;;;0.65;0.65;;;1.80;99.90;;;;;;5064461;28;20162;-83
2022/12/08 02:50:10;;;;;;;0.70;0.70;;;1.90;99.90;;;;;;5064052;28;20044;-83
2022/12/08 02:52:40;;;;;;;0.70;0.70;;;1.70;99.90;;;;;;5067606;28;20045;-85
2022/12/08 02:55:12;;;;;;;0.70;0.70;;;1.70;99.90;;;;;;5066454;28;20041;-86
2022/12/08 02:58:12;;;;;;;0.63;0.63;;;1.60;99.90;;;;;;5066136;28;20040;-82
2022/12/08 03:01:08;;;;;;;0.60;0.60;;;1.60;99.90;;;;;;5067144;28;20136;-85
2022/12/08 03:03:52;;;;;;;0.70;0.70;;;1.60;99.90;;;;;;5064346;28;20074;-84
2022/12/08 03:06:18;;;;;;;0.60;0.60;;;2.80;99.90;;;;;;5068581;28;20056;-84
2022/12/08 03:09:01;;;;;;;0.65;0.65;;;2.90;99.90;;;;;;5060072;28;20048;-85
2022/12/08 03:11:53;;;;;;;0.70;0.70;;;1.60;99.90;;;;;;5067652;28;20040;-83
2022/12/08 03:14:21;;;;;;;0.70;0.70;;;1.60;99.90;;;;;;5060888;28;20047;-85
2022/12/08 03:16:51;;;;;;;0.52;0.52;;;2.40;99.90;;;;;;5044283;28;20048;-85
2022/12/08 03:19:21;;;;;;;0.70;0.70;;;1.70;99.90;;;;;;5049375;28;20056;-85
2022/12/08 03:21:51;;;;;;;0.80;0.80;;;3.50;99.90;;;;;;5048897;28;20051;-84
2022/12/08 03:24:21;;;;;;;0.70;0.70;;;2.00;99.90;;;;;;5073602;28;20045;-85
2022/12/08 03:26:53;;;;;;;0.70;0.70;;;1.80;99.90;;;;;;5061179;28;20440;-84
2022/12/08 03:29:19;;;;;;;0.65;0.65;;;2.60;99.90;;;;;;5063840;28;20040;-84
2022/12/08 03:31:48;;;;;;;;;;;3.00;99.90;;;;;;5080367;28;20048;-86
2022/12/08 03:34:15;;;;;;;0.70;0.70;;;2.70;99.90;;;;;;5062566;28;19925;-85
2022/12/08 03:36:43;;;;;;;0.65;0.65;;;3.10;99.90;;;;;;5063865;28;20036;-87
2022/12/08 03:39:09;;;;;;;0.70;0.70;;;1.70;99.90;;;;;;5060364;28;20053;-87
2022/12/08 03:41:34;;;;;;;0.80;0.80;;;1.70;99.90;;;;;;5068554;28;20087;-85
2022/12/08 03:44:01;;;;;;;0.70;0.70;;;2.00;99.90;;;;;;5061379;28;20036;-87
2022/12/08 03:46:27;;;;;;;;;;;1.70;99.90;;;;;;5045605;28;20398;-85
2022/12/08 03:48:53;;;;;;;0.80;0.80;;;1.60;99.90;;;;;;5050886;28;20046;-85
2022/12/08 03:51:19;;;;;;;0.70;0.70;;;1.00;99.90;;;;;;5045656;28;20555;-86
2022/12/08 03:53:49;;;;;;;0.70;0.70;;;1.80;99.90;;;;;;5068548;28;20062;-86
2022/12/08 03:56:26;;;;;;;1.15;1.15;;;3.60;99.90;;;;;;5035864;28;20032;-84
2022/12/08 03:58:52;;;;;;;0.70;0.70;;;1.80;99.90;;;;;;5050844;28;20410;-86
2022/12/08 04:01:18;;;;;;;0.50;0.50;;;1.80;99.90;;;;;;5047180;28;20080;-86
2022/12/08 04:03:44;;;;;;;0.65;0.65;;;2.70;99.90;;;;;;5059160;28;20863;-83
2022/12/08 04:06:10;;;;;;;0.70;0.70;;;1.90;99.90;;;;;;5076259;28;20122;-84
2022/12/08 04:08:35;;;;;;;0.60;0.60;;;1.90;99.90;;;;;;5065555;28;20047;-82
2022/12/08 04:11:01;;;;;;;0.50;0.50;;;1.90;99.90;;;;;;5069362;28;20068;-82
2022/12/08 04:13:27;;;;;;;0.80;0.80;;;2.80;99.90;;;;;;5088261;28;20036;-85
2022/12/08 04:15:53;;;;;;;0.70;0.70;;;2.00;99.90;;;;;;5078434;28;20080;-84
2022/12/08 04:18:18;;;;;;;0.70;0.70;;;3.20;99.90;;;;;;5081254;28;20109;-84
2022/12/08 04:20:45;;;;;;;0.70;0.70;;;2.90;99.90;;;;;;5041516;28;20063;-86
2022/12/08 04:23:13;;;;;;;0.50;0.50;;;1.90;99.90;;;;;;5063975;28;20032;-83
2022/12/08 04:25:41;;;;;;;0.70;0.70;;;1.90;99.90;;;;;;5056595;28;20079;-86
2022/12/08 04:28:07;;;;;;;0.65;0.65;;;2.40;99.90;;;;;;5044779;28;20048;-84
2022/12/08 04:30:33;;;;;;;0.65;0.65;;;1.90;99.90;;;;;;5063640;28;20473;-83
2022/12/08 04:32:59;;;;;;;0.75;0.75;;;1.90;99.90;;;;;;5058116;28;20043;-84
2022/12/08 04:35:26;;;;;;;0.70;0.70;;;2.00;99.90;;;;;;5058126;28;20045;-82
2022/12/08 04:37:52;;;;;;;0.60;0.60;;;1.20;99.90;;;;;;5073506;28;20037;-83
2022/12/08 04:40:18;;;;;;;0.60;0.60;;;2.00;99.90;;;;;;5051386;28;20694;-84
2022/12/08 04:42:44;;;;;;;0.60;0.60;;;2.00;99.90;;;;;;5077266;28;20037;-84
2022/12/08 04:45:10;;;;;;;0.70;0.70;;;2.00;99.90;;;;;;5064539;28;20033;-84
2022/12/08 04:47:36;;;;;;;;;;;2.00;99.90;;;;;;5045881;28;20080;-84
2022/12/08 04:50:03;;;;;;;0.50;0.50;;;3.80;99.90;;;;;;5063913;28;20005;-84
2022/12/08 04:52:28;;;;;;;0.50;0.50;;;2.00;99.90;;;;;;5037802;28;20158;-84
2022/12/08 04:54:54;;;;;;;0.70;0.70;;;2.00;99.90;;;;;;5057718;28;20389;-84
2022/12/08 04:57:20;;;;;;;0.70;0.70;;;2.20;99.90;;;;;;5061491;28;20041;-83
2022/12/08 04:59:45;;;;;;;0.60;0.60;;;2.10;99.90;;;;;;5042914;28;20047;-84
2022/12/08 05:02:12;;;;;;;0.70;0.70;;;2.10;99.90;;;;;;5042720;28;20044;-84
2022/12/08 05:04:37;;;;;;;;;;;2.00;99.90;;;;;;5036165;28;20418;-84
2022/12/08 05:07:03;;;;;;;1.00;1.00;;;1.90;99.90;;;;;;5059519;28;19962;-84
2022/12/08 05:09:29;;;;;;;0.70;0.70;;;2.60;99.90;;;;;;5060845;28;20044;-84
2022/12/08 05:11:55;;;;;;;0.70;0.70;;;1.90;99.90;;;;;;5060948;28;21904;-84
2022/12/08 05:14:21;;;;;;;0.70;0.70;;;1.90;99.90;;;;;;5067626;28;20048;-84
2022/12/08 05:16:47;;;;;;;0.70;0.70;;;1.90;99.90;;;;;;5060853;28;20052;-85
2022/12/08 05:19:13;;;;;;;0.70;0.70;;;2.70;99.90;;;;;;5028911;28;20072;-84
2022/12/08 05:21:39;;;;;;;0.70;0.70;;;2.10;99.90;;;;;;5040401;28;20044;-83
2022/12/08 05:24:05;;;;;;;0.60;0.60;;;1.80;99.90;;;;;;5061751;28;20047;-84
2022/12/08 05:26:31;;;;;;;0.70;0.70;;;1.80;99.90;;;;;;5046521;28;20039;-84
2022/12/08 05:28:59;;;;;;;0.60;0.60;;;1.80;99.90;;;;;;5062000;28;20119;-84
2022/12/08 05:31:25;;;;;;;0.60;0.60;;;1.80;99.90;;;;;;5031730;28;20116;-83
2022/12/08 05:33:51;;;;;;;0.70;0.70;;;1.80;99.90;;;;;;5061579;28;20033;-83
2022/12/08 05:36:18;;;;;;;0.60;0.60;;;1.90;99.90;;;;;;5058460;28;20056;-85
2022/12/08 05:38:45;;;;;;;0.70;0.70;;;1.90;99.90;;;;;;5061744;28;20115;-84
2022/12/08 05:41:14;;;;;;;0.60;0.60;;;1.80;99.90;;;;;;5045428;28;20131;-83
2022/12/08 05:43:40;;;;;;;0.70;0.70;;;1.80;99.90;;;;;;5057667;28;20501;-84
2022/12/08 05:46:07;;;;;;;0.70;0.70;;;1.80;99.90;;;;;;5054533;28;20041;-83
2022/12/08 05:48:33;;;;;;;0.60;0.60;;;1.80;99.90;;;;;;5054743;28;20409;-85
2022/12/08 05:50:59;;;;;;;0.60;0.60;;;1.70;99.90;;;;;;5061830;28;20080;-84
2022/12/08 05:53:25;;;;;;;0.60;0.60;;;3.20;99.90;;;;;;5060065;28;20049;-83
2022/12/08 05:55:51;;;;;;;0.50;0.50;;;1.60;99.90;;;;;;5065598;28;20441;-83
2022/12/08 05:58:19;;;;;;;0.77;0.77;;;1.60;99.90;;;;;;5058165;28;21626;-84
2022/12/08 06:00:45;;;;;;;0.40;0.40;;;1.60;99.90;;;;;;5072187;28;20037;-82
2022/12/08 06:03:14;;;;;;;0.60;0.60;;;2.20;99.90;;;;;;5059625;28;20077;-85
2022/12/08 06:05:41;;;;;;;0.60;0.60;;;1.60;99.90;;;;;;5058701;28;20521;-84
2022/12/08 06:08:07;;;;;;;0.70;0.70;;;1.60;99.90;;;;;;5060756;28;20500;-83
2022/12/08 06:10:33;;;;;;;0.80;0.80;;;1.60;99.90;;;;;;5056791;28;20052;-82
2022/12/08 06:13:00;;;;;;;0.60;0.60;;;1.50;99.90;;;;;;5056428;28;20041;-82
2022/12/08 06:15:26;;;;;;;0.60;0.60;;;1.50;99.90;;;;;;5054308;28;20037;-83
2022/12/08 06:17:52;;;;;;;0.90;0.90;;;1.40;99.90;;;;;;5071155;28;20563;-82
2022/12/08 06:20:17;;;;;;;0.70;0.70;;;2.80;99.90;;;;;;5028546;28;20075;-82
2022/12/08 06:22:43;;;;;;;0.70;0.70;;;1.30;99.90;;;;;;5064549;28;20060;-83
2022/12/08 06:25:09;;;;;;;0.70;0.70;;;1.30;99.90;;;;;;5059750;28;20044;-83
2022/12/08 06:27:35;;;;;;;0.80;0.80;;;1.50;99.90;;;;;;5073108;28;20033;-84
2022/12/08 06:30:01;;;;;;;0.60;0.60;;;1.60;99.90;;;;;;5063348;28;20116;-83
2022/12/08 06:32:26;;;;;;;;;;;1.30;99.90;;;;;;5057836;28;20045;-84
2022/12/08 06:34:52;;;;;;;0.52;0.52;;;2.10;99.90;;;;;;5044311;28;20434;-84
2022/12/08 06:37:18;;;;;;;0.63;0.63;;;2.10;99.90;;;;;;5061122;28;20041;-85
2022/12/08 06:39:46;;;;;;;0.80;0.80;;;1.20;99.90;;;;;;5058482;28;20037;-83
2022/12/08 06:44:57;;;;;;;0.70;0.70;;;1.10;99.90;;;;;;5042268;28;20037;-84
2022/12/08 06:47:23;;;;;;;0.63;0.63;;;1.00;99.90;;;;;;5056104;28;20059;-82
2022/12/08 06:49:48;;;;;;;0.60;0.60;;;1.10;99.90;;;;;;5027751;28;20072;-85
2022/12/08 06:52:14;;;;;;;0.80;0.80;;;1.10;99.90;;;;;;5054168;28;20066;-82
2022/12/08 06:54:40;;;;;;;0.73;0.73;;;1.10;99.90;;;;;;5043306;28;20045;-84
2022/12/08 06:57:06;;;;;;;0.50;0.50;;;1.10;99.90;;;;;;5036201;28;20032;-84
2022/12/08 06:59:31;;;;;;;0.70;0.70;;;1.40;99.90;;;;;;5037302;28;20067;-83
2022/12/08 07:01:57;;;;;;;0.70;0.70;;;1.00;99.90;;;;;;5051256;28;20395;-86
2022/12/08 07:04:23;;;;;;;0.68;0.68;;;0.90;99.90;;;;;;5037441;28;20037;-81
2022/12/08 07:06:49;;;;;;;0.55;0.55;;;0.90;99.90;;;;;;5055676;28;20045;-83
2022/12/08 07:09:15;;;;;;;0.70;0.70;;;0.90;99.90;;;;;;5031588;28;20033;-83
2022/12/08 07:11:44;;;;;;;0.70;0.70;;;0.80;99.90;;;;;;5054296;28;20398;-80
2022/12/08 07:14:11;;;;;;;0.70;0.70;;;0.80;99.90;;;;;;5054651;28;20056;-79
2022/12/08 07:16:38;;;;;;;0.70;0.70;;;0.70;99.90;;;;;;5055492;28;21814;-84
2022/12/08 07:19:04;;;;;;;0.75;0.75;;;0.90;99.90;;;;;;5058203;28;20060;-85
2022/12/08 07:21:30;;;;;;;0.70;0.70;;;0.70;99.90;;;;;;5046442;28;20125;-81
2022/12/08 07:23:58;;;;;;;0.77;0.77;;;0.60;99.90;;;;;;5057240;28;20066;-82
2022/12/08 07:26:25;;;;;;;0.80;0.80;;;0.60;99.90;;;;;;5056673;28;20045;-82
2022/12/08 07:28:51;;;;;;;0.90;0.90;;;0.50;99.90;;;;;;5037887;28;20071;-81
2022/12/08 07:31:20;;;;;;;0.73;0.73;;;1.80;99.90;;;;;;5031504;28;21778;-82
2022/12/08 07:33:46;;;;;;;0.60;0.60;;;0.50;99.90;;;;;;5066293;28;20029;-81
2022/12/08 07:36:12;;;;;;;0.68;0.68;;;0.50;99.90;;;;;;5066898;28;20094;-84
2022/12/08 07:38:38;;;;;;;0.68;0.68;;;0.50;99.90;;;;;;5036077;28;20037;-84
2022/12/08 07:41:04;;;;;;;0.60;0.60;;;0.50;99.90;;;;;;5066121;28;20143;-83
2022/12/08 07:43:30;;;;;;;0.70;0.70;;;0.40;99.90;;;;;;5038386;28;20045;-82
2022/12/08 07:45:57;;;;;;;0.70;0.70;;;0.40;99.90;;;;;;5042310;28;20067;-82
2022/12/08 07:48:23;;;;;;;0.70;0.70;;;0.40;99.90;;;;;;5068188;28;20057;-81
2022/12/08 07:50:48;;;;;;;0.68;0.68;;;0.40;99.90;;;;;;5043367;28;20044;-82
2022/12/08 07:53:14;;;;;;;0.60;0.60;;;0.40;99.90;;;;;;5043616;28;20044;-83
2022/12/08 07:55:41;;;;;;;0.80;0.80;;;0.30;99.90;;;;;;5067283;28;20056;-81
2022/12/08 07:58:07;;;;;;;0.63;0.63;;;0.30;99.90;;;;;;5053466;28;20103;-83
2022/12/08 08:00:39;;;;;;;0.70;0.70;;;0.40;99.90;;;;;;5060175;28;20044;-83
2022/12/08 08:03:08;;;;;;;0.75;0.75;;;0.50;99.90;;;;;;5070179;28;20028;-81
2022/12/08 08:05:40;;;;;;;0.68;0.68;;;0.30;99.90;;;;;;5059894;28;20069;-82
2022/12/08 08:08:06;;;;;;;;;;;0.30;99.90;;;;;;5047412;28;20072;-83
2022/12/08 08:10:31;;;;;;;0.65;0.65;;;0.40;99.90;;;;;;5047637;28;19923;-83
2022/12/08 08:12:58;;;;;;;0.70;0.70;;;0.40;99.90;;;;;;5058258;28;20048;-82
2022/12/08 08:15:24;;;;;;;0.60;0.60;;;0.50;99.90;;;;;;5037210;28;20051;-82
2022/12/08 08:17:51;;;;;;;0.70;0.70;;;1.70;99.90;;;;;;5057595;28;20119;-86
2022/12/08 08:20:18;;;;;;;0.70;0.70;;;0.70;99.90;;;;;;5061410;28;20056;-83
2022/12/08 08:22:49;;;;;;;0.80;0.80;;;0.80;99.90;;;;;;5064387;28;20037;-83
2022/12/08 08:25:16;;;;;;;0.70;0.70;;;0.90;99.90;;;;;;5059219;28;20041;-83
2022/12/08 08:27:42;;;;;;;0.65;0.65;;;1.00;99.90;;;;;;5076636;28;20041;-85
2022/12/08 08:30:09;;;;;;;;;;;1.10;99.90;;;;;;5058800;28;20032;-82
2022/12/08 08:32:35;;;;;;;0.70;0.70;;;1.10;99.90;;;;;;5062218;28;19925;-83
2022/12/08 08:35:05;;;;;;;0.80;0.80;;;1.20;99.90;;;;;;5055429;28;20040;-85
2022/12/08 08:37:30;;;;;;;0.75;0.75;;;1.20;99.90;;;;;;5033673;28;20167;-86
2022/12/08 08:39:56;;;;;;;0.70;0.70;;;2.70;99.90;;;;;;5067400;28;20509;-87
2022/12/08 08:42:22;;;;;;;0.60;0.60;;;1.10;99.90;;;;;;5040458;28;20045;-87
2022/12/08 08:44:48;;;;;;;0.70;0.70;;;1.00;99.90;;;;;;5044798;28;20040;-85
2022/12/08 08:47:14;;;;;;;0.50;0.50;;;0.90;99.90;;;;;;5046120;28;20049;-86
2022/12/08 08:49:40;;;;;;;0.40;0.40;;;2.30;99.90;;;;;;5047662;28;20037;-86
2022/12/08 08:52:06;;;;;;;;;;;2.70;99.90;;;;;;5065190;28;20091;-85
2022/12/08 08:54:32;;;;;;;0.60;0.60;;;2.20;99.90;;;;;;5069706;28;19959;-86
2022/12/08 08:56:58;;;;;;;0.65;0.65;;;0.70;99.90;;;;;;5074598;28;20102;-86
2022/12/08 08:59:25;;;;;;;0.52;0.52;;;0.70;99.90;;;;;;5047662;28;20040;-86
2022/12/08 09:01:52;;;;;;;0.70;0.70;;;0.70;99.90;;;;;;5071741;28;20049;-87
2022/12/08 09:04:18;;;;;;;0.65;0.65;;;-0.70;99.90;;;;;;5078148;28;21775;-85
2022/12/08 09:06:44;;;;;;;0.60;0.60;;;0.80;99.90;;;;;;5060513;28;20450;-85
2022/12/08 09:09:11;;;;;;;0.70;0.70;;;0.90;99.90;;;;;;5050678;28;20116;-86
2022/12/08 09:11:37;;;;;;;0.68;0.68;;;1.10;99.90;;;;;;5064795;28;20048;-85
2022/12/08 09:14:03;;;;;;;0.50;0.50;;;1.60;99.90;;;;;;5065864;28;20033;-85
2022/12/08 09:16:32;;;;;;;0.70;0.70;;;1.30;99.90;;;;;;5066608;28;20040;-83
2022/12/08 09:18:58;;;;;;;0.70;0.70;;;1.90;99.90;;;;;;5037534;28;20045;-85
2022/12/08 09:21:25;;;;;;;0.60;0.60;;;2.00;99.90;;;;;;5063914;28;20044;-84
2022/12/08 09:23:53;;;;;;;0.70;0.70;;;1.80;99.90;;;;;;5065215;28;20041;-84
2022/12/08 09:26:21;;;;;;;0.63;0.63;;;1.90;99.90;;;;;;5065182;28;20106;-84
2022/12/08 09:28:51;;;;;;;1.00;1.00;;;3.30;99.90;;;;;;5058615;28;20566;-85
2022/12/08 09:31:18;;;;;;;0.63;0.63;;;2.00;99.90;;;;;;5072090;28;20044;-85
2022/12/08 09:33:47;;;;;;;0.70;0.70;;;2.00;99.90;;;;;;5078162;28;20041;-83
2022/12/08 09:36:13;;;;;;;;;;;2.00;99.90;;;;;;5067853;28;20044;-85
2022/12/08 09:38:40;;;;;;;0.60;0.60;;;3.10;99.90;;;;;;5059550;28;19980;-84
2022/12/08 09:41:22;;;;;;;0.70;0.70;;;2.10;99.90;;;;;;5065749;28;20037;-85
2022/12/08 09:43:51;;;;;;;0.70;0.70;;;2.00;99.90;;;;;;5065154;28;20045;-85
2022/12/08 09:46:18;;;;;;;0.70;0.70;;;2.00;99.90;;;;;;5063823;28;20033;-85
2022/12/08 09:48:50;;;;;;;0.70;0.70;;;2.00;99.90;;;;;;5046972;28;20081;-85
2022/12/08 09:51:16;;;;;;;0.90;0.90;;;1.90;99.90;;;;;;5067617;28;20485;-84
2022/12/08 09:53:49;;;;;;;0.80;0.80;;;2.30;99.90;;;;;;5081877;28;20123;-86
2022/12/08 09:56:23;;;;;;;0.63;0.63;;;3.50;99.90;;;;;;5055072;28;20040;-83
2022/12/08 09:59:02;;;;;;;0.80;0.80;;;1.90;99.90;;;;;;5073774;28;20052;-84
2022/12/08 10:01:40;;;;;;;0.75;0.75;;;1.90;99.90;;;;;;5071065;28;20066;-84
2022/12/08 10:04:23;;;;;;;0.57;0.57;;;1.90;99.90;;;;;;5074996;28;20391;-84
2022/12/08 10:06:57;;;;;;;0.70;0.70;;;1.60;99.90;;;;;;5045177;28;20040;-84
2022/12/08 10:09:39;;;;;;;0.80;0.80;;;1.80;99.90;;;;;;5073403;28;20032;-83
2022/12/08 10:12:11;;;;;;;0.60;0.60;;;1.70;99.90;;;;;;5076930;28;20049;-83
2022/12/08 10:14:42;;;;;;;0.60;0.60;;;1.70;99.90;;;;;;5062272;28;20071;-84
2022/12/08 10:17:49;;;;;;;0.57;0.57;;;1.80;99.90;;;;;;5057483;28;20154;-84
2022/12/08 10:20:18;;;;;;;0.70;0.70;;;1.90;99.90;;;;;;5056124;28;20041;-85
2022/12/08 10:22:49;;;;;;;0.80;0.80;;;2.40;99.90;;;;;;5083422;28;20043;-84
2022/12/08 10:25:24;;;;;;;0.73;0.73;;;2.00;99.90;;;;;;5069296;28;20111;-85
2022/12/08 10:27:57;;;;;;;0.70;0.70;;;2.20;99.90;;;;;;5069042;28;20063;-84
2022/12/08 10:30:23;;;;;;;0.55;0.55;;;3.70;99.90;;;;;;5081653;28;20088;-84
2022/12/08 10:32:50;;;;;;;0.70;0.70;;;2.40;99.90;;;;;;5073461;28;20036;-84
2022/12/08 10:35:20;;;;;;;0.60;0.60;;;2.60;99.90;;;;;;5050145;28;20036;-84
2022/12/08 10:37:56;;;;;;;0.70;0.70;;;2.70;99.90;;;;;;5074797;28;20115;-85
2022/12/08 10:40:23;;;;;;;0.63;0.63;;;2.90;99.90;;;;;;5063361;28;20473;-83
2022/12/08 10:42:56;;;;;;;0.70;0.70;;;3.00;99.90;;;;;;5072779;28;20115;-85
2022/12/08 10:45:26;;;;;;;1.05;1.05;;;3.10;99.90;;;;;;5069481;28;20040;-84
2022/12/08 10:48:13;;;;;;;0.70;0.70;;;3.10;99.90;;;;;;5064258;28;20491;-85
2022/12/08 10:50:46;;;;;;;0.60;0.60;;;3.10;99.90;;;;;;5068868;28;20045;-84
2022/12/08 10:53:24;;;;;;;0.70;0.70;;;3.10;99.90;;;;;;5051519;28;20119;-85
2022/12/08 10:55:51;;;;;;;1.27;1.25;;;3.10;99.90;;;;;;5063400;28;20048;-83
2022/12/08 10:58:39;;;;;;;0.80;0.80;;;4.70;99.90;;;;;;5050474;28;20040;-84
2022/12/08 11:01:24;;;;;;;0.57;0.57;;;3.10;99.90;;;;;;5050429;28;20044;-83
2022/12/08 11:03:55;;;;;;;0.60;0.60;;;3.10;99.90;;;;;;5090217;28;20048;-85
2022/12/08 11:06:29;;;;;;;0.70;0.70;;;3.10;99.90;;;;;;5069531;28;20371;-84
2022/12/08 11:08:57;;;;;;;0.60;0.60;;;3.20;99.90;;;;;;5074914;28;20052;-85
2022/12/08 11:11:55;;;;;;;0.60;0.60;;;3.20;99.90;;;;;;5057805;28;20036;-84
2022/12/08 11:14:20;;;;;;;;;;;3.30;99.90;;;;;;5049271;28;20045;-84
2022/12/08 11:16:47;;;;;;;0.60;0.60;;;3.40;99.90;;;;;;5062427;28;20361;-85
2022/12/08 11:19:18;;;;;;;0.68;0.68;;;3.50;99.90;;;;;;5036409;28;20532;-84
2022/12/08 11:21:46;;;;;;;0.60;0.60;;;3.50;99.90;;;;;;5062366;28;20383;-85
2022/12/08 11:24:14;;;;;;;0.60;0.60;;;3.50;99.90;;;;;;5064080;28;20479;-84
2022/12/08 11:26:46;;;;;;;0.70;0.70;;;3.50;99.90;;;;;;5062804;28;20127;-84
2022/12/08 11:29:12;;;;;;;0.70;0.70;;;3.50;99.90;;;;;;5064854;28;20115;-85
2022/12/08 11:31:51;;;;;;;0.63;0.63;;;4.30;99.90;;;;;;5057200;28;20114;-85
2022/12/08 11:34:29;;;;;;;0.50;0.50;;;3.40;99.90;;;;;;5065104;28;20086;-84
2022/12/08 11:36:57;;;;;;;0.70;0.70;;;3.40;99.90;;;;;;5053784;28;20028;-83
2022/12/08 11:39:26;;;;;;;0.60;0.60;;;3.50;99.90;;;;;;5058835;28;20041;-84
2022/12/08 11:41:56;;;;;;;0.52;0.52;;;3.50;99.90;;;;;;5059406;28;20049;-82
2022/12/08 11:44:48;;;;;;;0.60;0.60;;;3.50;99.90;;;;;;5065893;28;20055;-84
2022/12/08 11:47:23;;;;;;;0.60;0.60;;;3.90;99.90;;;;;;5061932;28;20065;-84
2022/12/08 11:50:02;;;;;;;0.60;0.60;;;3.70;99.90;;;;;;5067935;28;20040;-83
2022/12/08 11:52:47;;;;;;;0.70;0.70;;;3.70;99.90;;;;;;5057448;28;20700;-84
2022/12/08 11:55:31;;;;;;;0.70;0.70;;;3.60;99.90;;;;;;5054473;28;20443;-84
2022/12/08 11:58:03;;;;;;;0.70;0.70;;;3.50;99.90;;;;;;5052062;28;20036;-84
2022/12/08 12:00:28;;;;;;;0.60;0.60;;;3.60;99.90;;;;;;5067375;28;20056;-84
2022/12/08 12:03:05;;;;;;;0.60;0.60;;;3.40;99.90;;;;;;5071883;28;20057;-83
2022/12/08 12:05:52;;;;;;;;;;;3.10;99.90;;;;;;5045646;28;20029;-84
2022/12/08 12:08:46;;;;;;;0.60;0.60;;;3.30;99.90;;;;;;5050066;28;20246;-83
2022/12/08 12:12:12;;;;;;;0.50;0.50;;;3.30;99.90;;;;;;5078900;28;20079;-83
2022/12/08 12:14:20;;;;;;;0.57;0.57;;;3.30;99.90;;;;;;5063675;28;20049;-85
2022/12/08 12:17:02;;;;;;;0.60;0.60;;;3.20;99.90;;;;;;5082351;28;20037;-84
2022/12/08 12:19:34;;;;;;;0.60;0.60;;;3.20;99.90;;;;;;5059573;28;20049;-84
2022/12/08 12:22:13;;;;;;;0.70;0.70;;;3.10;99.90;;;;;;5062397;28;20036;-83
2022/12/08 12:24:42;;;;;;;0.68;0.68;;;3.10;99.90;;;;;;5043882;28;20485;-84
2022/12/08 12:27:14;;;;;;;0.60;0.60;;;3.10;99.90;;;;;;5058310;28;20097;-84
2022/12/08 12:30:00;;;;;;;0.40;0.40;;;3.10;99.90;;;;;;5075510;28;20441;-84
2022/12/08 12:32:40;;;;;;;0.60;0.60;;;3.30;99.90;;;;;;5073219;28;20055;-84
2022/12/08 12:35:34;;;;;;;0.60;0.60;;;3.40;99.90;;;;;;5060813;28;20068;-84
2022/12/08 12:38:59;;;;;;;0.50;0.50;;;3.60;99.90;;;;;;5062182;28;20056;-84
2022/12/08 12:41:03;;;;;;;0.70;0.70;;;3.60;99.90;;;;;;5066033;28;20087;-84
2022/12/08 12:43:34;;;;;;;0.55;0.55;;;3.70;99.90;;;;;;5057507;28;20088;-84
2022/12/08 12:46:22;;;;;;;0.50;0.50;;;3.70;99.90;;;;;;5057632;28;20056;-83
2022/12/08 12:48:50;;;;;;;0.60;0.60;;;4.40;99.90;;;;;;5076498;28;20054;-84
2022/12/08 12:51:42;;;;;;;0.50;0.50;;;3.80;99.90;;;;;;5064889;28;20367;-84
2022/12/08 12:54:23;;;;;;;0.63;0.63;;;3.90;99.90;;;;;;5063297;28;20166;-83
2022/12/08 12:56:52;;;;;;;0.55;0.55;;;3.90;99.90;;;;;;5077658;28;20067;-84
2022/12/08 13:00:06;;;;;;;0.50;0.50;;;3.90;99.90;;;;;;5063245;28;20397;-84
2022/12/08 13:02:45;;;;;;;0.50;0.50;;;3.90;99.90;;;;;;5062160;28;20052;-83
2022/12/08 13:05:25;;;;;;;0.70;0.70;;;3.90;99.90;;;;;;5049686;28;20351;-85
2022/12/08 13:08:02;;;;;;;0.60;0.60;;;3.80;99.90;;;;;;5054291;28;20045;-84
2022/12/08 13:10:36;;;;;;;0.60;0.60;;;3.70;99.90;;;;;;5062932;28;20037;-83
2022/12/08 13:13:11;;;;;;;0.50;0.50;;;3.50;99.90;;;;;;5071230;28;20116;-84
2022/12/08 13:15:55;;;;;;;0.70;0.70;;;5.10;99.90;;;;;;5057796;28;20095;-82
2022/12/08 13:19:01;;;;;;;0.60;0.60;;;3.20;99.90;;;;;;5079540;28;20036;-84
2022/12/08 13:21:37;;;;;;;0.60;0.60;;;3.00;99.90;;;;;;5060691;28;20122;-83
2022/12/08 13:24:09;;;;;;;0.63;0.63;;;2.80;99.90;;;;;;5072888;28;20043;-84
2022/12/08 13:27:03;;;;;;;0.50;0.50;;;2.70;99.90;;;;;;5069050;28;20425;-84